createdAt,value
2023-05-05T00:02:18.709Z,101071.69
2023-05-05T00:04:51.232Z,101086.22
2023-05-05T00:07:23.789Z,101072.97
2023-05-05T00:09:56.350Z,101076.38
2023-05-05T00:12:28.960Z,101085.59
2023-05-05T00:15:01.697Z,101084.06
2023-05-05T00:17:34.382Z,101084.56
2023-05-05T00:20:08.648Z,101086.28
2023-05-05T00:22:41.381Z,101092.16
2023-05-05T00:25:13.965Z,101096.78
2023-05-05T00:27:46.456Z,101091.38
2023-05-05T00:30:19.087Z,101090.88
2023-05-05T00:32:51.826Z,101092.53
2023-05-05T00:35:24.708Z,101082.63
2023-05-05T00:37:58.461Z,101083.69
2023-05-05T00:40:31.612Z,101088.72
2023-05-05T00:43:07.770Z,101093.69
2023-05-05T00:45:42.873Z,101094.88
2023-05-05T00:48:17.737Z,101098.63
2023-05-05T00:50:50.336Z,101092.28
2023-05-05T00:53:23.294Z,101098.19
2023-05-05T00:55:55.940Z,101099.22
2023-05-05T00:58:30.667Z,101102.09
2023-05-05T01:01:03.397Z,101095.84
2023-05-05T01:03:39.151Z,101089.56
2023-05-05T01:06:41.341Z,101093.56
2023-05-05T01:09:47.636Z,101098.44
2023-05-05T01:12:36.228Z,101102.88
2023-05-05T01:15:34.807Z,101103.28
2023-05-05T01:18:47.520Z,101107.03
2023-05-05T01:21:31.215Z,101104.69
2023-05-05T01:24:38.935Z,101097.81
2023-05-05T01:27:44.979Z,101088.41
2023-05-05T01:30:37.940Z,101077.66
2023-05-05T01:33:18.096Z,101090.81
2023-05-05T01:35:57.774Z,101091.19
2023-05-05T01:38:41.172Z,101098.31
2023-05-05T01:41:25.283Z,101094.31
2023-05-05T01:44:03.045Z,101096.31
2023-05-05T01:46:37.421Z,101085.84
2023-05-05T01:49:12.379Z,101085.53
2023-05-05T01:51:49.277Z,101088.34
2023-05-05T01:54:26.082Z,101097.59
2023-05-05T01:56:59.749Z,101095.22
2023-05-05T01:59:33.925Z,101102.28
2023-05-05T02:02:12.032Z,101089.13
2023-05-05T02:04:46.431Z,101095.78
2023-05-05T02:07:21.374Z,101095.41
2023-05-05T02:09:56.455Z,101103.03
2023-05-05T02:12:31.875Z,101097.44
2023-05-05T02:15:08.782Z,101109.50
2023-05-05T02:17:44.293Z,101105.47
2023-05-05T02:20:19.926Z,101114.88
2023-05-05T02:22:53.902Z,101105.47
2023-05-05T02:25:35.783Z,101118.31
2023-05-05T02:28:36.535Z,101120.50
2023-05-05T02:31:13.741Z,101121.81
2023-05-05T02:33:50.641Z,101130.19
2023-05-05T02:36:29.220Z,101127.72
2023-05-05T02:39:10.883Z,101128.91
2023-05-05T02:41:49.689Z,101141.66
2023-05-05T02:44:24.752Z,101137.50
2023-05-05T02:46:58.645Z,101151.28
2023-05-05T02:49:33.201Z,101149.38
2023-05-05T02:52:05.975Z,101144.94
2023-05-05T02:54:38.620Z,101140.56
2023-05-05T02:57:20.893Z,101145.28
2023-05-05T03:00:06.049Z,101142.50
2023-05-05T03:03:05.519Z,101139.13
2023-05-05T03:05:47.398Z,101134.81
2023-05-05T03:08:47.091Z,101135.97
2023-05-05T03:12:08.580Z,101140.38
2023-05-05T03:14:44.712Z,101139.75
2023-05-05T03:17:21.711Z,101144.28
2023-05-05T03:19:55.502Z,101143.50
2023-05-05T03:22:28.196Z,101147.16
2023-05-05T03:25:00.711Z,101151.78
2023-05-05T03:27:33.175Z,101159.75
2023-05-05T03:30:06.920Z,101154.38
2023-05-05T03:32:39.629Z,101157.25
2023-05-05T03:35:12.184Z,101157.19
2023-05-05T03:37:44.702Z,101159.19
2023-05-05T03:40:17.356Z,101143.34
2023-05-05T03:42:50.115Z,101150.59
2023-05-05T03:45:22.710Z,101158.69
2023-05-05T03:47:55.296Z,101165.88
2023-05-05T03:50:28.172Z,101161.72
2023-05-05T03:53:00.837Z,101159.97
2023-05-05T03:55:33.326Z,101155.69
2023-05-05T03:58:06.642Z,101172.50
2023-05-05T04:00:39.231Z,101166.53
2023-05-05T04:03:12.240Z,101170.09
2023-05-05T04:05:44.902Z,101177.22
2023-05-05T04:08:17.415Z,101171.97
2023-05-05T04:10:49.952Z,101169.19
2023-05-05T04:13:22.491Z,101172.88
2023-05-05T04:15:55.942Z,101171.75
2023-05-05T04:18:28.653Z,101181.53
2023-05-05T04:21:01.348Z,101180.63
2023-05-05T04:23:33.938Z,101185.13
2023-05-05T04:26:06.728Z,101184.50
2023-05-05T04:28:39.272Z,101177.06
2023-05-05T04:31:11.857Z,101181.47
2023-05-05T04:33:44.423Z,101188.72
2023-05-05T04:36:18.973Z,101187.78
2023-05-05T04:38:51.601Z,101192.72
2023-05-05T04:41:24.071Z,101183.81
2023-05-05T04:43:56.555Z,101187.03
2023-05-05T04:46:29.073Z,101192.34
2023-05-05T04:49:03.339Z,101187.09
2023-05-05T04:51:35.920Z,101193.25
2023-05-05T04:54:08.752Z,101187.78
2023-05-05T04:56:41.280Z,101180.84
2023-05-05T04:59:17.140Z,101179.25
2023-05-05T05:01:49.753Z,101181.06
2023-05-05T05:04:22.376Z,101185.25
2023-05-05T05:06:56.231Z,101173.72
2023-05-05T05:09:31.389Z,101173.63
2023-05-05T05:12:04.416Z,101174.56
2023-05-05T05:14:41.304Z,101170.81
2023-05-05T05:17:13.886Z,101173.22
2023-05-05T05:19:46.462Z,101168.66
2023-05-05T05:22:19.001Z,101180.22
2023-05-05T05:24:52.121Z,101172.13
2023-05-05T05:27:24.685Z,101175.63
2023-05-05T05:29:57.236Z,101173.56
2023-05-05T05:32:29.882Z,101176.03
2023-05-05T05:35:02.446Z,101176.84
2023-05-05T05:37:35.381Z,101186.56
2023-05-05T05:40:09.889Z,101195.91
2023-05-05T05:42:42.635Z,101198.34
2023-05-05T05:45:15.383Z,101205.06
2023-05-05T05:47:47.979Z,101227.66
2023-05-05T05:50:21.242Z,101233.47
2023-05-05T05:52:54.182Z,101242.25
2023-05-05T05:55:26.673Z,101242.75
2023-05-05T05:57:59.384Z,101251.13
2023-05-05T06:00:31.948Z,101255.38
2023-05-05T06:03:04.459Z,101253.47
2023-05-05T06:05:36.997Z,101259.81
2023-05-05T06:08:09.568Z,101269.47
2023-05-05T06:10:42.316Z,101258.97
2023-05-05T06:13:15.065Z,101269.59
2023-05-05T06:15:47.785Z,101264.53
2023-05-05T06:18:20.551Z,101265.75
2023-05-05T06:20:53.083Z,101277.50
2023-05-05T06:23:25.618Z,101275.84
2023-05-05T06:25:58.584Z,101274.38
2023-05-05T06:28:31.207Z,101281.47
2023-05-05T06:31:04.021Z,101275.13
2023-05-05T06:33:36.731Z,101265.16
2023-05-05T06:36:09.385Z,101266.00
2023-05-05T06:38:41.895Z,101270.19
2023-05-05T06:41:14.624Z,101254.72
2023-05-05T06:43:47.126Z,101262.66
2023-05-05T06:46:19.947Z,101259.56
2023-05-05T06:48:52.980Z,101264.44
2023-05-05T06:51:26.489Z,101268.31
2023-05-05T06:53:59.047Z,101266.59
2023-05-05T06:56:31.652Z,101269.31
2023-05-05T06:59:04.114Z,101275.53
2023-05-05T07:01:36.689Z,101270.13
2023-05-05T07:04:09.167Z,101271.38
2023-05-05T07:06:41.735Z,101272.78
2023-05-05T07:09:15.750Z,101273.34
2023-05-05T07:11:49.733Z,101281.75
2023-05-05T07:14:24.386Z,101291.50
2023-05-05T07:16:57.409Z,101281.50
2023-05-05T07:19:30.077Z,101282.22
2023-05-05T07:22:02.650Z,101290.28
2023-05-05T07:24:35.304Z,101287.78
2023-05-05T07:27:07.996Z,101293.06
2023-05-05T07:29:40.503Z,101300.44
2023-05-05T07:32:13.649Z,101289.75
2023-05-05T07:34:46.232Z,101292.16
2023-05-05T07:37:18.912Z,101284.31
2023-05-05T07:39:51.962Z,101287.06
2023-05-05T07:42:24.538Z,101275.34
2023-05-05T07:44:57.051Z,101273.28
2023-05-05T07:47:30.270Z,101274.09
2023-05-05T07:50:02.994Z,101273.22
2023-05-05T07:52:46.675Z,101274.75
2023-05-05T07:55:24.140Z,101265.47
2023-05-05T07:57:56.608Z,101270.09
2023-05-05T08:00:29.422Z,101264.38
2023-05-05T08:03:01.999Z,101264.31
2023-05-05T08:05:34.652Z,101271.72
2023-05-05T08:08:07.267Z,101277.66
2023-05-05T08:10:40.242Z,101272.50
2023-05-05T08:13:12.956Z,101270.47
2023-05-05T08:15:46.806Z,101271.84
2023-05-05T08:18:19.427Z,101281.56
2023-05-05T08:20:53.078Z,101281.31
2023-05-05T08:23:25.734Z,101285.50
2023-05-05T08:25:58.382Z,101285.56
2023-05-05T08:28:30.952Z,101280.38
2023-05-05T08:31:06.989Z,101276.88
2023-05-05T08:33:39.629Z,101279.00
2023-05-05T08:36:13.625Z,101288.88
2023-05-05T08:38:46.443Z,101286.03
2023-05-05T08:41:22.264Z,101285.78
2023-05-05T08:43:55.357Z,101280.03
2023-05-05T08:46:28.865Z,101281.78
2023-05-05T08:49:03.900Z,101282.84
2023-05-05T08:51:43.033Z,101285.13
2023-05-05T08:54:22.485Z,101287.94
2023-05-05T08:57:02.032Z,101285.16
2023-05-05T08:59:36.961Z,101290.56
2023-05-05T09:02:11.542Z,101286.63
2023-05-05T09:04:44.325Z,101283.94
2023-05-05T09:07:17.559Z,101276.34
2023-05-05T09:09:50.680Z,101279.63
2023-05-05T09:12:23.425Z,101279.25
2023-05-05T09:14:58.955Z,101285.38
2023-05-05T09:17:32.097Z,101298.16
2023-05-05T09:20:13.468Z,101290.50
2023-05-05T09:22:47.540Z,101295.97
2023-05-05T09:25:20.218Z,101295.19
2023-05-05T09:27:52.846Z,101297.75
2023-05-05T09:30:27.078Z,101297.25
2023-05-05T09:33:02.154Z,101300.78
2023-05-05T09:35:55.299Z,101300.53
2023-05-05T09:38:27.823Z,101299.78
2023-05-05T09:41:00.327Z,101297.09
2023-05-05T09:43:51.722Z,101290.38
2023-05-05T09:46:24.616Z,101299.69
2023-05-05T09:49:18.429Z,101295.44
2023-05-05T09:51:52.868Z,101293.31
2023-05-05T09:54:28.840Z,101302.06
2023-05-05T09:57:01.405Z,101292.69
2023-05-05T09:59:33.907Z,101292.75
2023-05-05T10:02:13.181Z,101295.97
2023-05-05T10:04:46.016Z,101295.41
2023-05-05T10:07:24.859Z,101299.41
2023-05-05T10:09:57.387Z,101297.19
2023-05-05T10:12:31.552Z,101291.56
2023-05-05T10:15:07.152Z,101292.84
2023-05-05T10:18:06.006Z,101295.75
2023-05-05T10:20:43.801Z,101299.31
2023-05-05T10:23:20.991Z,101294.69
2023-05-05T10:26:01.525Z,101293.34
2023-05-05T10:28:43.911Z,101293.47
2023-05-05T10:31:49.278Z,101290.50
2023-05-05T10:34:40.690Z,101303.13
2023-05-05T10:37:13.754Z,101309.28
2023-05-05T10:39:51.541Z,101312.34
2023-05-05T10:42:24.638Z,101308.22
2023-05-05T10:44:57.285Z,101321.78
2023-05-05T10:47:32.147Z,101321.84
2023-05-05T10:50:13.826Z,101316.56
2023-05-05T10:53:41.169Z,101318.19
2023-05-05T10:56:31.090Z,101308.88
2023-05-05T10:59:03.599Z,101305.72
2023-05-05T11:01:36.978Z,101322.94
2023-05-05T11:04:23.800Z,101323.56
2023-05-05T11:07:11.040Z,101334.81
2023-05-05T11:10:08.281Z,101333.41
2023-05-05T11:13:04.141Z,101325.31
2023-05-05T11:15:38.048Z,101326.06
2023-05-05T11:18:35.680Z,101323.28
2023-05-05T11:21:18.047Z,101326.38
2023-05-05T11:23:52.003Z,101326.63
2023-05-05T11:26:51.270Z,101335.22
2023-05-05T11:29:23.899Z,101330.41
2023-05-05T11:32:23.081Z,101331.03
2023-05-05T11:34:56.241Z,101329.16
2023-05-05T11:37:29.224Z,101326.16
2023-05-05T11:40:20.932Z,101314.38
2023-05-05T11:43:06.451Z,101318.06
2023-05-05T11:45:39.070Z,101319.69
2023-05-05T11:48:28.857Z,101321.25
2023-05-05T11:51:03.706Z,101315.03
2023-05-05T11:53:36.807Z,101320.38
2023-05-05T11:56:11.735Z,101323.16
2023-05-05T11:58:45.629Z,101325.53
2023-05-05T12:01:18.239Z,101327.34
2023-05-05T12:03:51.066Z,101330.09
2023-05-05T12:06:23.985Z,101326.59
2023-05-05T12:08:56.718Z,101314.38
2023-05-05T12:11:29.505Z,101308.69
2023-05-05T12:14:11.718Z,101303.28
2023-05-05T12:17:05.096Z,101312.84
2023-05-05T12:19:46.506Z,101317.44
2023-05-05T12:22:25.130Z,101317.69
2023-05-05T12:25:01.374Z,101311.34
2023-05-05T12:27:35.468Z,101304.81
2023-05-05T12:30:16.189Z,101310.38
2023-05-05T12:32:48.927Z,101308.50
2023-05-05T12:35:21.920Z,101293.06
2023-05-05T12:37:54.771Z,101289.13
2023-05-05T12:40:48.335Z,101285.75
2023-05-05T12:43:35.050Z,101287.56
2023-05-05T12:46:12.505Z,101290.22
2023-05-05T12:48:47.390Z,101289.31
2023-05-05T12:51:23.610Z,101276.75
2023-05-05T12:54:11.340Z,101275.41
2023-05-05T12:56:46.497Z,101286.72
2023-05-05T12:59:21.754Z,101294.50
2023-05-05T13:01:56.140Z,101295.44
2023-05-05T13:04:28.951Z,101306.84
2023-05-05T13:07:12.213Z,101308.06
2023-05-05T13:09:48.186Z,101324.31
2023-05-05T13:12:22.153Z,101317.91
2023-05-05T13:14:55.687Z,101324.53
2023-05-05T13:17:29.291Z,101319.38
2023-05-05T13:20:01.934Z,101324.69
2023-05-05T13:22:34.965Z,101341.03
2023-05-05T13:25:07.864Z,101339.22
2023-05-05T13:27:40.440Z,101339.72
2023-05-05T13:30:13.761Z,101328.88
2023-05-05T13:32:46.586Z,101342.72
2023-05-05T13:35:19.256Z,101351.75
2023-05-05T13:37:51.839Z,101353.59
2023-05-05T13:40:25.838Z,101361.53
2023-05-05T13:42:58.694Z,101361.38
2023-05-05T13:45:33.519Z,101346.81
2023-05-05T13:48:07.529Z,101342.44
2023-05-05T13:50:40.137Z,101321.44
2023-05-05T13:53:13.186Z,101330.13
2023-05-05T13:55:45.949Z,101322.91
2023-05-05T13:58:23.104Z,101322.16
2023-05-05T14:00:56.437Z,101321.59
2023-05-05T14:03:32.281Z,101322.81
2023-05-05T14:06:08.309Z,101317.63
2023-05-05T14:08:41.152Z,101305.16
2023-05-05T14:11:16.194Z,101298.31
2023-05-05T14:13:51.434Z,101292.50
2023-05-05T14:16:24.142Z,101290.53
2023-05-05T14:18:57.000Z,101299.53
2023-05-05T14:21:29.721Z,101288.56
2023-05-05T14:24:04.949Z,101294.81
2023-05-05T14:26:38.249Z,101297.00
2023-05-05T14:29:11.063Z,101302.34
2023-05-05T14:31:43.807Z,101289.13
2023-05-05T14:34:16.554Z,101284.91
2023-05-05T14:36:49.485Z,101279.59
2023-05-05T14:39:22.220Z,101275.81
2023-05-05T14:41:55.181Z,101270.16
2023-05-05T14:44:28.971Z,101268.06
2023-05-05T14:47:02.121Z,101266.81
2023-05-05T14:49:36.342Z,101264.09
2023-05-05T14:52:14.369Z,101262.84
2023-05-05T14:54:56.843Z,101268.13
2023-05-05T14:57:32.279Z,101284.00
2023-05-05T15:00:07.016Z,101285.63
2023-05-05T15:02:39.781Z,101283.13
2023-05-05T15:05:16.455Z,101290.22
2023-05-05T15:07:49.409Z,101289.84
2023-05-05T15:10:22.249Z,101288.28
2023-05-05T15:12:54.992Z,101282.19
2023-05-05T15:15:27.863Z,101275.94
2023-05-05T15:18:00.638Z,101279.84
2023-05-05T15:20:36.118Z,101273.34
2023-05-05T15:23:08.862Z,101268.47
2023-05-05T15:25:41.903Z,101272.06
2023-05-05T15:28:16.502Z,101265.66
2023-05-05T15:30:51.955Z,101265.34
2023-05-05T15:33:26.646Z,101268.66
2023-05-05T15:36:00.279Z,101268.84
2023-05-05T15:38:44.599Z,101266.78
2023-05-05T15:41:17.338Z,101265.41
2023-05-05T15:43:49.945Z,101271.72
2023-05-05T15:46:26.578Z,101264.19
2023-05-05T15:48:59.461Z,101256.97
2023-05-05T15:51:32.358Z,101247.09
2023-05-05T15:54:06.924Z,101255.41
2023-05-05T15:56:42.717Z,101249.94
2023-05-05T15:59:23.899Z,101249.50
2023-05-05T16:01:56.800Z,101259.94
2023-05-05T16:04:29.850Z,101253.50
2023-05-05T16:07:08.282Z,101250.81
2023-05-05T16:09:41.034Z,101250.78
2023-05-05T16:12:13.953Z,101247.06
2023-05-05T16:14:47.845Z,101242.56
2023-05-05T16:17:22.953Z,101244.59
2023-05-05T16:19:55.927Z,101255.22
2023-05-05T16:22:28.597Z,101248.34
2023-05-05T16:25:01.226Z,101245.53
2023-05-05T16:27:33.930Z,101250.06
2023-05-05T16:30:08.883Z,101254.59
2023-05-05T16:32:42.075Z,101245.25
2023-05-05T16:35:14.624Z,101253.53
2023-05-05T16:37:47.099Z,101246.72
2023-05-05T16:40:19.701Z,101253.66
2023-05-05T16:42:52.286Z,101248.06
2023-05-05T16:45:24.976Z,101246.81
2023-05-05T16:47:57.812Z,101251.91
2023-05-05T16:50:30.530Z,101252.78
2023-05-05T16:53:03.058Z,101246.19
2023-05-05T16:55:36.121Z,101250.59
2023-05-05T16:58:09.035Z,101252.69
2023-05-05T17:00:42.192Z,101242.44
2023-05-05T17:03:23.750Z,101242.72
2023-05-05T17:05:56.579Z,101250.63
2023-05-05T17:08:29.662Z,101243.91
2023-05-05T17:11:05.436Z,101250.66
2023-05-05T17:13:37.975Z,101250.50
2023-05-05T17:16:11.129Z,101252.59
2023-05-05T17:18:43.733Z,101256.34
2023-05-05T17:21:16.465Z,101250.88
2023-05-05T17:23:49.146Z,101254.25
2023-05-05T17:26:22.709Z,101243.47
2023-05-05T17:28:55.342Z,101246.22
2023-05-05T17:31:28.109Z,101243.19
2023-05-05T17:34:02.729Z,101248.38
2023-05-05T17:36:37.920Z,101239.28
2023-05-05T17:39:11.377Z,101243.63
2023-05-05T17:41:44.024Z,101236.84
2023-05-05T17:44:16.646Z,101242.81
2023-05-05T17:46:49.318Z,101247.41
2023-05-05T17:49:22.292Z,101240.75
2023-05-05T17:51:55.011Z,101241.03
2023-05-05T17:54:27.718Z,101239.06
2023-05-05T17:57:00.231Z,101230.41
2023-05-05T17:59:32.753Z,101230.22
2023-05-05T18:02:05.729Z,101225.72
2023-05-05T18:04:38.632Z,101221.69
2023-05-05T18:07:12.495Z,101230.66
2023-05-05T18:09:45.120Z,101229.16
2023-05-05T18:12:17.661Z,101230.41
2023-05-05T18:14:50.222Z,101241.00
2023-05-05T18:17:22.877Z,101247.84
2023-05-05T18:19:58.141Z,101250.88
2023-05-05T18:22:30.850Z,101251.25
2023-05-05T18:25:04.841Z,101256.03
2023-05-05T18:27:40.462Z,101255.66
2023-05-05T18:30:13.670Z,101250.28
2023-05-05T18:32:46.467Z,101263.22
2023-05-05T18:35:19.047Z,101260.19
2023-05-05T18:37:52.360Z,101269.06
2023-05-05T18:40:24.918Z,101266.28
2023-05-05T18:42:57.495Z,101266.44
2023-05-05T18:45:30.262Z,101259.47
2023-05-05T18:48:02.922Z,101265.81
2023-05-05T18:50:46.219Z,101265.44
2023-05-05T18:53:18.917Z,101276.75
2023-05-05T18:55:51.542Z,101267.72
2023-05-05T18:58:24.675Z,101277.69
2023-05-05T19:00:58.121Z,101278.84
2023-05-05T19:03:30.824Z,101278.13
2023-05-05T19:06:07.060Z,101280.06
2023-05-05T19:08:39.720Z,101281.75
2023-05-05T19:11:14.513Z,101286.69
2023-05-05T19:13:47.155Z,101292.66
2023-05-05T19:16:20.151Z,101283.50
2023-05-05T19:18:54.609Z,101294.63
2023-05-05T19:21:27.783Z,101290.63
2023-05-05T19:24:00.401Z,101302.53
2023-05-05T19:26:33.040Z,101303.81
2023-05-05T19:29:05.823Z,101299.78
2023-05-05T19:31:40.880Z,101298.31
2023-05-05T19:34:13.548Z,101307.53
2023-05-05T19:36:46.132Z,101307.91
2023-05-05T19:39:18.662Z,101304.66
2023-05-05T19:41:51.348Z,101311.16
2023-05-05T19:44:24.015Z,101314.81
2023-05-05T19:46:56.652Z,101307.03
2023-05-05T19:49:29.244Z,101313.38
2023-05-05T19:52:02.475Z,101313.56
2023-05-05T19:54:36.449Z,101308.41
2023-05-05T19:57:09.573Z,101311.19
2023-05-05T19:59:42.255Z,101312.22
2023-05-05T20:02:16.962Z,101313.31
2023-05-05T20:04:49.602Z,101316.84
2023-05-05T20:07:22.592Z,101318.72
2023-05-05T20:09:56.848Z,101312.56
2023-05-05T20:12:29.806Z,101314.38
2023-05-05T20:15:03.261Z,101319.72
2023-05-05T20:17:36.288Z,101314.44
2023-05-05T20:20:12.649Z,101322.34
2023-05-05T20:22:47.684Z,101313.47
2023-05-05T20:25:20.423Z,101319.63
2023-05-05T20:27:52.972Z,101309.97
2023-05-05T20:30:25.596Z,101312.63
2023-05-05T20:32:58.177Z,101304.84
2023-05-05T20:35:31.147Z,101309.25
2023-05-05T20:38:04.755Z,101304.00
2023-05-05T20:40:37.326Z,101312.19
2023-05-05T20:43:09.872Z,101313.16
2023-05-05T20:45:42.860Z,101316.72
2023-05-05T20:48:15.523Z,101315.94
2023-05-05T20:50:48.005Z,101314.19
2023-05-05T20:53:21.306Z,101313.41
2023-05-05T20:55:53.791Z,101317.06
2023-05-05T20:58:26.942Z,101309.00
2023-05-05T21:00:59.551Z,101308.09
2023-05-05T21:03:32.213Z,101310.75
2023-05-05T21:06:05.652Z,101310.72
2023-05-05T21:08:39.481Z,101310.75
2023-05-05T21:11:12.091Z,101302.75
2023-05-05T21:13:44.717Z,101308.75
2023-05-05T21:16:17.263Z,101302.50
2023-05-05T21:18:49.903Z,101296.16
2023-05-05T21:21:23.832Z,101302.31
2023-05-05T21:23:57.606Z,101307.50
2023-05-05T21:26:30.186Z,101302.13
2023-05-05T21:29:02.960Z,101297.53
2023-05-05T21:31:35.588Z,101302.81
2023-05-05T21:34:08.085Z,101303.59
2023-05-05T21:36:40.871Z,101301.88
2023-05-05T21:39:13.442Z,101286.81
2023-05-05T21:41:46.008Z,101284.09
2023-05-05T21:44:18.809Z,101289.53
2023-05-05T21:46:55.221Z,101293.44
2023-05-05T21:49:30.705Z,101288.91
2023-05-05T21:52:03.297Z,101287.97
2023-05-05T21:54:36.100Z,101295.78
2023-05-05T21:57:08.641Z,101284.31
2023-05-05T21:59:41.244Z,101288.72
2023-05-05T22:02:13.986Z,101284.22
2023-05-05T22:04:48.491Z,101292.34
2023-05-05T22:07:20.992Z,101288.66
2023-05-05T22:09:53.609Z,101285.16
2023-05-05T22:12:26.197Z,101286.94
2023-05-05T22:14:58.750Z,101285.34
2023-05-05T22:17:31.298Z,101285.41
2023-05-05T22:20:05.046Z,101280.94
2023-05-05T22:22:37.765Z,101275.88
2023-05-05T22:25:10.550Z,101277.56
2023-05-05T22:27:43.316Z,101278.41
2023-05-05T22:30:15.838Z,101274.06
2023-05-05T22:32:48.783Z,101283.84
2023-05-05T22:35:21.398Z,101279.56
2023-05-05T22:37:53.946Z,101276.97
2023-05-05T22:40:26.462Z,101276.25
2023-05-05T22:42:59.222Z,101270.22
2023-05-05T22:45:33.120Z,101271.06
2023-05-05T22:48:06.390Z,101276.44
2023-05-05T22:50:38.999Z,101274.69
2023-05-05T22:53:11.539Z,101276.44
2023-05-05T22:55:44.136Z,101276.50
2023-05-05T22:58:16.692Z,101275.72
2023-05-05T23:00:49.179Z,101276.50
2023-05-05T23:03:21.687Z,101274.75
2023-05-05T23:05:54.159Z,101274.03
2023-05-05T23:08:26.716Z,101270.34
2023-05-05T23:11:00.652Z,101281.88
2023-05-05T23:13:33.224Z,101269.50
2023-05-05T23:16:06.285Z,101274.81
2023-05-05T23:18:38.840Z,101276.63
2023-05-05T23:21:11.416Z,101279.28
2023-05-05T23:23:43.971Z,101279.34
2023-05-05T23:26:16.512Z,101282.13
2023-05-05T23:28:49.096Z,101292.75
2023-05-05T23:31:22.028Z,101280.38
2023-05-05T23:33:54.576Z,101279.56
2023-05-05T23:36:27.323Z,101269.94
2023-05-05T23:38:59.830Z,101281.53
2023-05-05T23:41:32.438Z,101276.28
2023-05-05T23:44:05.050Z,101284.38
2023-05-05T23:46:37.554Z,101273.06
2023-05-05T23:49:10.005Z,101273.19
2023-05-05T23:51:42.876Z,101272.38
2023-05-05T23:54:15.362Z,101268.09
2023-05-05T23:56:47.872Z,101271.66
2023-05-05T23:59:20.424Z,101263.78
